sensor_id;sensor_type;location;lat;lon;timestamp;pressure;altitude;pressure_sealevel;temperature;humidity
23643;BME280;11998;55.788;37.572;2023-05-11T00:00:08;99300.75;;;92.97;2.24
23643;BME280;11998;55.788;37.572;2023-05-11T00:01:09;99298.44;;;91.60;2.30
23643;BME280;11998;55.788;37.572;2023-05-11T00:02:11;99301.16;;;92.36;2.07
23643;BME280;11998;55.788;37.572;2023-05-11T00:03:11;99299.00;;;92.29;2.20
23643;BME280;11998;55.788;37.572;2023-05-11T00:04:12;99295.03;;;91.63;2.25
23643;BME280;11998;55.788;37.572;2023-05-11T00:05:13;99295.59;;;92.25;2.34
23643;BME280;11998;55.788;37.572;2023-05-11T00:06:13;99302.16;;;92.71;2.28
23643;BME280;11998;55.788;37.572;2023-05-11T00:07:14;99312.03;;;92.89;2.22
23643;BME280;11998;55.788;37.572;2023-05-11T00:08:14;99312.44;;;93.53;2.01
23643;BME280;11998;55.788;37.572;2023-05-11T00:09:15;99313.25;;;94.05;1.89
23643;BME280;11998;55.788;37.572;2023-05-11T00:10:16;99312.03;;;93.74;2.09
23643;BME280;11998;55.788;37.572;2023-05-11T00:11:16;99312.56;;;93.97;1.90
23643;BME280;11998;55.788;37.572;2023-05-11T00:12:18;99307.72;;;93.25;2.12
23643;BME280;11998;55.788;37.572;2023-05-11T00:13:18;99304.78;;;92.92;2.07
23643;BME280;11998;55.788;37.572;2023-05-11T00:14:19;99301.59;;;92.90;2.21
23643;BME280;11998;55.788;37.572;2023-05-11T00:15:20;99311.97;;;93.39;2.31
23643;BME280;11998;55.788;37.572;2023-05-11T00:16:21;99294.69;;;92.07;2.45
23643;BME280;11998;55.788;37.572;2023-05-11T00:17:21;99305.00;;;91.81;2.34
23643;BME280;11998;55.788;37.572;2023-05-11T00:18:22;99303.59;;;92.30;2.25
23643;BME280;11998;55.788;37.572;2023-05-11T00:19:22;99303.91;;;92.01;2.43
23643;BME280;11998;55.788;37.572;2023-05-11T00:20:23;99299.03;;;91.51;2.47
23643;BME280;11998;55.788;37.572;2023-05-11T00:21:23;99300.25;;;91.40;2.39
23643;BME280;11998;55.788;37.572;2023-05-11T00:22:24;99304.53;;;92.73;2.11
23643;BME280;11998;55.788;37.572;2023-05-11T00:23:25;99295.91;;;92.44;2.35
23643;BME280;11998;55.788;37.572;2023-05-11T00:24:25;99283.28;;;91.04;2.36
23643;BME280;11998;55.788;37.572;2023-05-11T00:25:26;99288.50;;;91.19;2.41
23643;BME280;11998;55.788;37.572;2023-05-11T00:26:26;99291.66;;;90.83;2.22
23643;BME280;11998;55.788;37.572;2023-05-11T00:27:27;99303.28;;;92.11;2.45
23643;BME280;11998;55.788;37.572;2023-05-11T00:28:28;99300.50;;;92.45;2.00
23643;BME280;11998;55.788;37.572;2023-05-11T00:29:28;99295.22;;;92.21;2.11
23643;BME280;11998;55.788;37.572;2023-05-11T00:30:29;99296.91;;;92.07;2.19
23643;BME280;11998;55.788;37.572;2023-05-11T00:31:30;99290.03;;;92.54;2.38
23643;BME280;11998;55.788;37.572;2023-05-11T00:32:30;99292.69;;;91.24;2.33
23643;BME280;11998;55.788;37.572;2023-05-11T00:33:31;99289.63;;;90.70;2.43
23643;BME280;11998;55.788;37.572;2023-05-11T00:34:31;99293.84;;;91.28;2.38
23643;BME280;11998;55.788;37.572;2023-05-11T00:35:32;99299.44;;;90.94;2.32
23643;BME280;11998;55.788;37.572;2023-05-11T00:36:35;99288.59;;;90.01;2.39
23643;BME280;11998;55.788;37.572;2023-05-11T00:37:39;99290.97;;;90.54;2.40
23643;BME280;11998;55.788;37.572;2023-05-11T00:38:39;99277.19;;;89.35;2.54
23643;BME280;11998;55.788;37.572;2023-05-11T00:39:40;99282.84;;;90.11;2.55
23643;BME280;11998;55.788;37.572;2023-05-11T00:40:41;99291.91;;;90.33;2.40
23643;BME280;11998;55.788;37.572;2023-05-11T00:41:41;99293.53;;;89.34;2.47
23643;BME280;11998;55.788;37.572;2023-05-11T00:42:42;99286.44;;;88.82;2.47
23643;BME280;11998;55.788;37.572;2023-05-11T00:43:42;99298.06;;;90.20;2.54
23643;BME280;11998;55.788;37.572;2023-05-11T00:44:43;99297.91;;;89.90;2.28
23643;BME280;11998;55.788;37.572;2023-05-11T00:45:44;99300.59;;;90.75;2.33
23643;BME280;11998;55.788;37.572;2023-05-11T00:46:47;99304.19;;;90.66;2.38
23643;BME280;11998;55.788;37.572;2023-05-11T00:47:48;99302.25;;;90.76;2.12
23643;BME280;11998;55.788;37.572;2023-05-11T00:48:49;99305.19;;;91.68;2.30
23643;BME280;11998;55.788;37.572;2023-05-11T00:49:51;99307.88;;;91.33;2.15
23643;BME280;11998;55.788;37.572;2023-05-11T00:50:52;99303.41;;;90.73;2.48
23643;BME280;11998;55.788;37.572;2023-05-11T00:51:53;99301.66;;;91.16;2.22
23643;BME280;11998;55.788;37.572;2023-05-11T00:52:56;99303.06;;;91.45;2.52
23643;BME280;11998;55.788;37.572;2023-05-11T00:53:58;99305.56;;;91.87;2.36
23643;BME280;11998;55.788;37.572;2023-05-11T00:55:00;99300.63;;;91.52;2.15
23643;BME280;11998;55.788;37.572;2023-05-11T00:56:00;99297.34;;;91.95;2.41
23643;BME280;11998;55.788;37.572;2023-05-11T00:57:02;99301.81;;;91.64;2.32
23643;BME280;11998;55.788;37.572;2023-05-11T00:58:03;99301.34;;;91.90;2.30
23643;BME280;11998;55.788;37.572;2023-05-11T00:59:07;99303.00;;;91.76;2.20
23643;BME280;11998;55.788;37.572;2023-05-11T01:00:08;99297.97;;;91.94;2.21
23643;BME280;11998;55.788;37.572;2023-05-11T01:01:09;99305.69;;;92.05;2.40
23643;BME280;11998;55.788;37.572;2023-05-11T01:02:09;99302.94;;;91.99;2.13
23643;BME280;11998;55.788;37.572;2023-05-11T01:03:10;99301.06;;;90.95;2.31
23643;BME280;11998;55.788;37.572;2023-05-11T01:04:12;99303.56;;;90.45;2.49
23643;BME280;11998;55.788;37.572;2023-05-11T01:05:13;99304.06;;;91.17;2.44
23643;BME280;11998;55.788;37.572;2023-05-11T01:08:51;99317.97;;;91.84;2.14
23643;BME280;11998;55.788;37.572;2023-05-11T01:10:23;99309.47;;;91.34;2.38
23643;BME280;11998;55.788;37.572;2023-05-11T01:11:44;99314.06;;;91.20;2.35
23643;BME280;11998;55.788;37.572;2023-05-11T01:13:17;99295.88;;;90.28;2.46
23643;BME280;11998;55.788;37.572;2023-05-11T01:14:24;99302.25;;;90.84;2.37
23643;BME280;11998;55.788;37.572;2023-05-11T01:15:31;99303.41;;;90.73;2.36
23643;BME280;11998;55.788;37.572;2023-05-11T01:16:39;99293.22;;;89.45;2.56
23643;BME280;11998;55.788;37.572;2023-05-11T01:17:48;99301.06;;;91.10;2.44
23643;BME280;11998;55.788;37.572;2023-05-11T01:18:59;99304.97;;;90.00;2.60
23643;BME280;11998;55.788;37.572;2023-05-11T01:20:04;99300.28;;;91.17;2.34
23643;BME280;11998;55.788;37.572;2023-05-11T01:21:07;99308.88;;;90.98;2.27
23643;BME280;11998;55.788;37.572;2023-05-11T01:22:54;99307.59;;;90.11;2.61
23643;BME280;11998;55.788;37.572;2023-05-11T01:28:50;99304.19;;;90.66;2.27
23643;BME280;11998;55.788;37.572;2023-05-11T01:31:14;99318.03;;;91.61;2.38
23643;BME280;11998;55.788;37.572;2023-05-11T01:32:23;99313.47;;;90.99;2.48
23643;BME280;11998;55.788;37.572;2023-05-11T01:33:30;99310.06;;;91.02;2.53
23643;BME280;11998;55.788;37.572;2023-05-11T01:34:34;99308.69;;;91.34;2.42
23643;BME280;11998;55.788;37.572;2023-05-11T01:35:42;99310.44;;;92.23;2.17
23643;BME280;11998;55.788;37.572;2023-05-11T01:36:52;99325.53;;;92.48;2.06
23643;BME280;11998;55.788;37.572;2023-05-11T01:37:56;99300.16;;;90.56;2.31
23643;BME280;11998;55.788;37.572;2023-05-11T01:39:06;99308.88;;;91.21;2.27
23643;BME280;11998;55.788;37.572;2023-05-11T01:40:14;99313.44;;;90.83;2.32
23643;BME280;11998;55.788;37.572;2023-05-11T01:41:17;99319.28;;;92.06;2.13
23643;BME280;11998;55.788;37.572;2023-05-11T01:42:30;99317.78;;;92.70;2.24
23643;BME280;11998;55.788;37.572;2023-05-11T01:43:34;99319.31;;;92.78;1.99
23643;BME280;11998;55.788;37.572;2023-05-11T01:44:38;99309.84;;;91.54;2.14
23643;BME280;11998;55.788;37.572;2023-05-11T01:45:45;99314.66;;;91.11;2.34
23643;BME280;11998;55.788;37.572;2023-05-11T01:46:47;99314.03;;;92.21;2.15
23643;BME280;11998;55.788;37.572;2023-05-11T01:47:49;99317.59;;;92.35;2.35
23643;BME280;11998;55.788;37.572;2023-05-11T01:48:51;99311.25;;;92.16;2.40
23643;BME280;11998;55.788;37.572;2023-05-11T01:49:54;99319.91;;;93.02;2.13
23643;BME280;11998;55.788;37.572;2023-05-11T01:50:59;99322.00;;;92.67;2.28
23643;BME280;11998;55.788;37.572;2023-05-11T01:52:02;99319.53;;;92.40;2.42
23643;BME280;11998;55.788;37.572;2023-05-11T01:53:03;99316.94;;;91.96;2.20
23643;BME280;11998;55.788;37.572;2023-05-11T01:54:07;99317.59;;;92.35;2.09
23643;BME280;11998;55.788;37.572;2023-05-11T01:55:09;99318.88;;;92.57;2.20
23643;BME280;11998;55.788;37.572;2023-05-11T01:56:10;99322.94;;;92.77;2.44
23643;BME280;11998;55.788;37.572;2023-05-11T01:57:11;99326.69;;;93.10;2.21
23643;BME280;11998;55.788;37.572;2023-05-11T01:58:13;99321.53;;;92.45;2.31
23643;BME280;11998;55.788;37.572;2023-05-11T01:59:16;99317.88;;;92.54;2.28
23643;BME280;11998;55.788;37.572;2023-05-11T02:00:18;99314.22;;;92.23;2.26
23643;BME280;11998;55.788;37.572;2023-05-11T02:01:19;99323.59;;;92.35;2.26
23643;BME280;11998;55.788;37.572;2023-05-11T02:02:21;99313.28;;;92.06;2.46
23643;BME280;11998;55.788;37.572;2023-05-11T02:03:24;99317.09;;;92.46;2.36
23643;BME280;11998;55.788;37.572;2023-05-11T02:04:27;99309.47;;;91.19;2.39
23643;BME280;11998;55.788;37.572;2023-05-11T02:05:29;99309.34;;;91.95;2.39
23643;BME280;11998;55.788;37.572;2023-05-11T02:06:31;99321.34;;;92.76;2.44
23643;BME280;11998;55.788;37.572;2023-05-11T02:07:34;99330.31;;;92.51;2.35
23643;BME280;11998;55.788;37.572;2023-05-11T02:08:36;99326.50;;;93.33;2.11
23643;BME280;11998;55.788;37.572;2023-05-11T02:09:39;99331.47;;;93.90;1.87
23643;BME280;11998;55.788;37.572;2023-05-11T02:10:41;99320.25;;;91.37;2.24
23643;BME280;11998;55.788;37.572;2023-05-11T02:11:43;99318.03;;;92.24;2.30
23643;BME280;11998;55.788;37.572;2023-05-11T02:12:45;99315.38;;;91.80;2.58
23643;BME280;11998;55.788;37.572;2023-05-11T02:13:48;99316.66;;;91.47;2.37
23643;BME280;11998;55.788;37.572;2023-05-11T02:14:51;99318.50;;;92.13;2.25
23643;BME280;11998;55.788;37.572;2023-05-11T02:15:55;99320.84;;;91.13;2.47
23643;BME280;11998;55.788;37.572;2023-05-11T02:16:56;99310.06;;;90.20;2.44
23643;BME280;11998;55.788;37.572;2023-05-11T02:17:57;99313.84;;;91.03;2.34
23643;BME280;11998;55.788;37.572;2023-05-11T02:18:59;99316.28;;;91.35;2.35
23643;BME280;11998;55.788;37.572;2023-05-11T02:20:00;99315.41;;;90.88;2.41
23643;BME280;11998;55.788;37.572;2023-05-11T02:21:03;99317.66;;;92.20;2.42
23643;BME280;11998;55.788;37.572;2023-05-11T02:22:05;99303.34;;;91.95;2.41
23643;BME280;11998;55.788;37.572;2023-05-11T02:23:07;99315.25;;;91.48;2.27
23643;BME280;11998;55.788;37.572;2023-05-11T02:24:08;99316.41;;;91.75;2.37
23643;BME280;11998;55.788;37.572;2023-05-11T02:25:10;99314.19;;;91.83;2.23
23643;BME280;11998;55.788;37.572;2023-05-11T02:26:13;99311.41;;;90.94;2.32
23643;BME280;11998;55.788;37.572;2023-05-11T02:27:16;99307.44;;;90.83;2.34
23643;BME280;11998;55.788;37.572;2023-05-11T02:28:17;99312.63;;;90.90;2.26
23643;BME280;11998;55.788;37.572;2023-05-11T02:29:17;99307.84;;;91.03;2.52
23643;BME280;11998;55.788;37.572;2023-05-11T02:30:18;99303.22;;;90.71;2.27
23643;BME280;11998;55.788;37.572;2023-05-11T02:31:27;99314.84;;;91.13;2.46
23643;BME280;11998;55.788;37.572;2023-05-11T02:32:29;99305.25;;;91.37;2.31
23643;BME280;11998;55.788;37.572;2023-05-11T02:33:34;99306.94;;;90.41;2.50
23643;BME280;11998;55.788;37.572;2023-05-11T02:34:41;99307.72;;;89.98;2.60
23643;BME280;11998;55.788;37.572;2023-05-11T02:35:43;99306.66;;;91.36;2.37
23643;BME280;11998;55.788;37.572;2023-05-11T02:36:51;99315.78;;;91.84;2.27
23643;BME280;11998;55.788;37.572;2023-05-11T02:37:55;99321.19;;;91.78;2.21
23643;BME280;11998;55.788;37.572;2023-05-11T02:39:06;99320.41;;;92.33;2.23
23643;BME280;11998;55.788;37.572;2023-05-11T02:40:14;99322.44;;;92.23;2.18
23643;BME280;11998;55.788;37.572;2023-05-11T02:41:20;99326.13;;;92.46;1.97
23643;BME280;11998;55.788;37.572;2023-05-11T02:42:25;99321.91;;;92.01;2.18
23643;BME280;11998;55.788;37.572;2023-05-11T02:43:30;99335.31;;;92.81;2.38
23643;BME280;11998;55.788;37.572;2023-05-11T02:44:33;99315.66;;;91.44;2.13
23643;BME280;11998;55.788;37.572;2023-05-11T02:45:36;99312.56;;;89.72;2.35
23643;BME280;11998;55.788;37.572;2023-05-11T02:46:38;99313.94;;;90.00;2.34
23643;BME280;11998;55.788;37.572;2023-05-11T02:47:46;99309.78;;;90.62;2.25
23643;BME280;11998;55.788;37.572;2023-05-11T02:48:54;99312.38;;;90.14;2.47
23643;BME280;11998;55.788;37.572;2023-05-11T02:49:58;99307.78;;;90.57;2.40
23643;BME280;11998;55.788;37.572;2023-05-11T02:51:02;99316.94;;;90.51;2.40
23643;BME280;11998;55.788;37.572;2023-05-11T02:52:06;99306.84;;;91.00;2.26
23643;BME280;11998;55.788;37.572;2023-05-11T02:53:13;99331.81;;;91.56;2.36
23643;BME280;11998;55.788;37.572;2023-05-11T02:54:16;99323.03;;;91.28;2.50
23643;BME280;11998;55.788;37.572;2023-05-11T02:55:19;99329.16;;;91.91;2.10
23643;BME280;11998;55.788;37.572;2023-05-11T02:56:20;99309.88;;;91.23;2.25
23643;BME280;11998;55.788;37.572;2023-05-11T02:57:23;99319.16;;;90.15;2.58
23643;BME280;11998;55.788;37.572;2023-05-11T02:58:24;99312.69;;;89.95;2.36
23643;BME280;11998;55.788;37.572;2023-05-11T02:59:24;99313.06;;;89.35;2.46
23643;BME280;11998;55.788;37.572;2023-05-11T03:00:25;99324.91;;;90.05;2.54
23643;BME280;11998;55.788;37.572;2023-05-11T03:01:27;99315.97;;;89.48;2.62
23643;BME280;11998;55.788;37.572;2023-05-11T03:02:27;99317.06;;;89.94;2.63
23643;BME280;11998;55.788;37.572;2023-05-11T03:03:28;99313.38;;;89.24;2.74
23643;BME280;11998;55.788;37.572;2023-05-11T03:04:29;99318.31;;;89.42;2.69
23643;BME280;11998;55.788;37.572;2023-05-11T03:05:29;99319.44;;;88.76;2.80
23643;BME280;11998;55.788;37.572;2023-05-11T03:06:30;99317.75;;;88.20;2.72
23643;BME280;11998;55.788;37.572;2023-05-11T03:07:32;99322.09;;;89.01;2.71
23643;BME280;11998;55.788;37.572;2023-05-11T03:08:33;99326.09;;;90.53;2.50
23643;BME280;11998;55.788;37.572;2023-05-11T03:09:34;99329.81;;;89.95;2.62
23643;BME280;11998;55.788;37.572;2023-05-11T03:10:35;99330.25;;;89.99;2.58
23643;BME280;11998;55.788;37.572;2023-05-11T03:11:36;99328.22;;;89.86;2.56
23643;BME280;11998;55.788;37.572;2023-05-11T03:12:37;99335.38;;;90.94;2.49
23643;BME280;11998;55.788;37.572;2023-05-11T03:13:38;99328.94;;;90.15;2.60
23643;BME280;11998;55.788;37.572;2023-05-11T03:14:39;99328.28;;;90.38;2.42
23643;BME280;11998;55.788;37.572;2023-05-11T03:15:40;99338.19;;;90.76;2.60
23643;BME280;11998;55.788;37.572;2023-05-11T03:16:42;99327.75;;;90.62;2.44
23643;BME280;11998;55.788;37.572;2023-05-11T03:17:45;99334.66;;;89.69;2.51
23643;BME280;11998;55.788;37.572;2023-05-11T03:18:47;99331.81;;;90.87;2.51
23643;BME280;11998;55.788;37.572;2023-05-11T03:19:48;99333.41;;;90.88;2.26
23643;BME280;11998;55.788;37.572;2023-05-11T03:20:50;99325.97;;;90.59;2.39
23643;BME280;11998;55.788;37.572;2023-05-11T03:21:51;99330.91;;;90.49;2.35
23643;BME280;11998;55.788;37.572;2023-05-11T03:22:54;99325.81;;;89.85;2.25
23643;BME280;11998;55.788;37.572;2023-05-11T03:23:56;99330.56;;;88.89;2.59
23643;BME280;11998;55.788;37.572;2023-05-11T03:24:57;99330.91;;;89.48;2.76
23643;BME280;11998;55.788;37.572;2023-05-11T03:25:59;99338.19;;;90.84;2.26
23643;BME280;11998;55.788;37.572;2023-05-11T03:27:01;99324.94;;;89.76;2.38
23643;BME280;11998;55.788;37.572;2023-05-11T03:28:04;99334.78;;;89.85;2.61
23643;BME280;11998;55.788;37.572;2023-05-11T03:29:07;99340.25;;;90.97;2.36
23643;BME280;11998;55.788;37.572;2023-05-11T03:30:10;99336.66;;;91.36;2.22
23643;BME280;11998;55.788;37.572;2023-05-11T03:31:11;99342.44;;;91.27;2.44
23643;BME280;11998;55.788;37.572;2023-05-11T03:32:12;99339.47;;;91.19;2.53
23643;BME280;11998;55.788;37.572;2023-05-11T03:33:13;99343.56;;;91.85;2.34
23643;BME280;11998;55.788;37.572;2023-05-11T03:34:14;99343.75;;;91.87;2.21
23643;BME280;11998;55.788;37.572;2023-05-11T03:35:15;99344.84;;;92.22;2.30
23643;BME280;11998;55.788;37.572;2023-05-11T03:36:16;99341.38;;;91.85;2.46
23643;BME280;11998;55.788;37.572;2023-05-11T03:37:18;99345.78;;;91.77;2.41
23643;BME280;11998;55.788;37.572;2023-05-11T03:38:21;99346.03;;;92.26;2.31
23643;BME280;11998;55.788;37.572;2023-05-11T03:39:23;99341.25;;;91.37;2.30
23643;BME280;11998;55.788;37.572;2023-05-11T03:40:25;99344.34;;;91.93;2.10
23643;BME280;11998;55.788;37.572;2023-05-11T03:41:30;99349.84;;;92.92;2.13
23643;BME280;11998;55.788;37.572;2023-05-11T03:42:32;99362.28;;;93.63;2.17
23643;BME280;11998;55.788;37.572;2023-05-11T03:43:34;99349.50;;;92.55;1.78
23643;BME280;11998;55.788;37.572;2023-05-11T03:44:37;99357.66;;;93.45;2.10
23643;BME280;11998;55.788;37.572;2023-05-11T03:45:40;99358.53;;;92.88;2.03
23643;BME280;11998;55.788;37.572;2023-05-11T03:46:43;99363.38;;;93.33;2.18
23643;BME280;11998;55.788;37.572;2023-05-11T03:47:47;99364.97;;;93.34;2.27
23643;BME280;11998;55.788;37.572;2023-05-11T03:48:48;99375.56;;;93.95;2.06
23643;BME280;11998;55.788;37.572;2023-05-11T03:49:50;99371.41;;;93.73;1.95
23643;BME280;11998;55.788;37.572;2023-05-11T03:50:50;99367.25;;;93.86;2.11
23643;BME280;11998;55.788;37.572;2023-05-11T03:51:52;99367.34;;;93.36;2.13
23643;BME280;11998;55.788;37.572;2023-05-11T03:52:54;99357.31;;;92.11;2.24
23643;BME280;11998;55.788;37.572;2023-05-11T03:53:55;99363.63;;;92.30;2.39
23643;BME280;11998;55.788;37.572;2023-05-11T03:54:56;99354.97;;;91.86;2.54
23643;BME280;11998;55.788;37.572;2023-05-11T03:55:56;99360.97;;;91.86;2.58
23643;BME280;11998;55.788;37.572;2023-05-11T03:56:57;99367.03;;;91.48;2.33
23643;BME280;11998;55.788;37.572;2023-05-11T03:57:57;99358.22;;;91.42;2.54
23643;BME280;11998;55.788;37.572;2023-05-11T03:58:58;99342.09;;;89.27;2.53
23643;BME280;11998;55.788;37.572;2023-05-11T03:59:59;99346.63;;;91.16;2.43
23643;BME280;11998;55.788;37.572;2023-05-11T04:00:59;99364.41;;;92.38;2.45
23643;BME280;11998;55.788;37.572;2023-05-11T04:02:01;99367.59;;;92.80;2.38
23643;BME280;11998;55.788;37.572;2023-05-11T04:03:03;99363.22;;;91.63;2.55
23643;BME280;11998;55.788;37.572;2023-05-11T04:04:05;99370.72;;;92.57;2.29
23643;BME280;11998;55.788;37.572;2023-05-11T04:05:07;99368.63;;;93.00;2.19
23643;BME280;11998;55.788;37.572;2023-05-11T04:06:08;99372.97;;;92.82;2.10
23643;BME280;11998;55.788;37.572;2023-05-11T04:07:09;99372.50;;;92.13;2.20
23643;BME280;11998;55.788;37.572;2023-05-11T04:08:10;99366.19;;;91.86;2.37
23643;BME280;11998;55.788;37.572;2023-05-11T04:09:11;99368.81;;;92.37;2.23
23643;BME280;11998;55.788;37.572;2023-05-11T04:10:11;99365.41;;;91.78;2.32
23643;BME280;11998;55.788;37.572;2023-05-11T04:11:12;99352.84;;;90.44;2.46
23643;BME280;11998;55.788;37.572;2023-05-11T04:12:13;99352.44;;;88.84;2.61
23643;BME280;11998;55.788;37.572;2023-05-11T04:13:13;99344.53;;;87.73;2.98
23643;BME280;11998;55.788;37.572;2023-05-11T04:14:14;99338.34;;;87.39;2.86
23643;BME280;11998;55.788;37.572;2023-05-11T04:15:14;99364.03;;;90.51;2.60
23643;BME280;11998;55.788;37.572;2023-05-11T04:16:15;99366.59;;;91.52;2.55
23643;BME280;11998;55.788;37.572;2023-05-11T04:17:16;99377.38;;;91.93;2.56
23643;BME280;11998;55.788;37.572;2023-05-11T04:18:16;99366.34;;;90.29;2.45
23643;BME280;11998;55.788;37.572;2023-05-11T04:19:17;99364.91;;;90.59;2.65
23643;BME280;11998;55.788;37.572;2023-05-11T04:20:17;99367.84;;;91.33;2.53
23643;BME280;11998;55.788;37.572;2023-05-11T04:21:18;99374.75;;;92.52;2.12
23643;BME280;11998;55.788;37.572;2023-05-11T04:22:18;99370.63;;;91.24;2.50
23643;BME280;11998;55.788;37.572;2023-05-11T04:23:19;99367.19;;;91.12;2.37
23643;BME280;11998;55.788;37.572;2023-05-11T04:24:20;99371.03;;;91.35;2.47
23643;BME280;11998;55.788;37.572;2023-05-11T04:25:20;99377.72;;;92.05;2.24
23643;BME280;11998;55.788;37.572;2023-05-11T04:26:21;99373.00;;;91.10;2.49
23643;BME280;11998;55.788;37.572;2023-05-11T04:27:22;99374.59;;;91.11;2.43
23643;BME280;11998;55.788;37.572;2023-05-11T04:28:23;99350.50;;;88.26;2.66
23643;BME280;11998;55.788;37.572;2023-05-11T04:29:26;99370.88;;;89.87;2.66
23643;BME280;11998;55.788;37.572;2023-05-11T04:30:27;99372.56;;;91.06;2.61
23643;BME280;11998;55.788;37.572;2023-05-11T04:31:28;99348.50;;;86.85;2.86
23643;BME280;11998;55.788;37.572;2023-05-11T04:32:29;99360.56;;;88.36;2.90
23643;BME280;11998;55.788;37.572;2023-05-11T04:33:30;99374.34;;;90.34;2.61
23643;BME280;11998;55.788;37.572;2023-05-11T04:34:30;99384.41;;;91.50;2.36
23643;BME280;11998;55.788;37.572;2023-05-11T04:35:31;99389.66;;;92.35;2.25
23643;BME280;11998;55.788;37.572;2023-05-11T04:36:31;99384.22;;;91.48;2.29
23643;BME280;11998;55.788;37.572;2023-05-11T04:37:32;99391.31;;;92.21;2.31
23643;BME280;11998;55.788;37.572;2023-05-11T04:38:33;99391.38;;;92.86;2.45
23643;BME280;11998;55.788;37.572;2023-05-11T04:39:33;99385.00;;;91.56;2.41
23643;BME280;11998;55.788;37.572;2023-05-11T04:40:34;99368.06;;;90.17;2.54
23643;BME280;11998;55.788;37.572;2023-05-11T04:41:35;99373.34;;;89.96;2.73
23643;BME280;11998;55.788;37.572;2023-05-11T04:42:36;99378.38;;;91.04;2.56
23643;BME280;11998;55.788;37.572;2023-05-11T04:43:36;99382.63;;;91.39;2.58
23643;BME280;11998;55.788;37.572;2023-05-11T04:44:37;99377.81;;;91.59;2.27
23643;BME280;11998;55.788;37.572;2023-05-11T04:45:38;99388.00;;;92.49;2.44
23643;BME280;11998;55.788;37.572;2023-05-11T04:46:39;99384.03;;;93.04;2.10
23643;BME280;11998;55.788;37.572;2023-05-11T04:47:40;99386.63;;;93.33;2.27
23643;BME280;11998;55.788;37.572;2023-05-11T04:48:40;99391.09;;;92.99;2.11
23643;BME280;11998;55.788;37.572;2023-05-11T04:49:41;99392.16;;;93.44;2.34
23643;BME280;11998;55.788;37.572;2023-05-11T04:50:43;99391.31;;;93.68;2.01
23643;BME280;11998;55.788;37.572;2023-05-11T04:51:43;99397.34;;;94.20;2.13
23643;BME280;11998;55.788;37.572;2023-05-11T04:52:44;99400.94;;;94.81;2.18
23643;BME280;11998;55.788;37.572;2023-05-11T04:53:45;99403.88;;;94.98;1.92
23643;BME280;11998;55.788;37.572;2023-05-11T04:54:45;99409.47;;;95.48;1.86
23643;BME280;11998;55.788;37.572;2023-05-11T04:55:46;99396.06;;;94.58;2.05
23643;BME280;11998;55.788;37.572;2023-05-11T04:56:47;99400.94;;;95.07;2.13
23643;BME280;11998;55.788;37.572;2023-05-11T04:57:47;99401.91;;;95.66;2.04
23643;BME280;11998;55.788;37.572;2023-05-11T04:58:48;99402.44;;;95.35;1.91
23643;BME280;11998;55.788;37.572;2023-05-11T04:59:49;99405.38;;;95.16;2.06
23643;BME280;11998;55.788;37.572;2023-05-11T05:00:49;99402.94;;;94.68;2.02
23643;BME280;11998;55.788;37.572;2023-05-11T05:01:50;99411.03;;;94.48;2.03
23643;BME280;11998;55.788;37.572;2023-05-11T05:02:50;99413.06;;;95.27;1.93
23643;BME280;11998;55.788;37.572;2023-05-11T05:03:51;99413.00;;;95.54;2.19
23643;BME280;11998;55.788;37.572;2023-05-11T05:04:51;99404.75;;;95.54;1.93
23643;BME280;11998;55.788;37.572;2023-05-11T05:05:52;99403.44;;;95.48;2.17
23643;BME280;11998;55.788;37.572;2023-05-11T05:06:53;99403.66;;;95.79;1.92
23643;BME280;11998;55.788;37.572;2023-05-11T05:07:53;99400.94;;;95.73;2.17
23643;BME280;11998;55.788;37.572;2023-05-11T05:08:54;99405.50;;;94.72;1.96
23643;BME280;11998;55.788;37.572;2023-05-11T05:09:55;99406.75;;;95.42;2.14
23643;BME280;11998;55.788;37.572;2023-05-11T05:10:55;99400.06;;;95.34;2.09
23643;BME280;11998;55.788;37.572;2023-05-11T05:11:56;99409.97;;;95.54;2.01
23643;BME280;11998;55.788;37.572;2023-05-11T05:12:57;99406.41;;;96.04;2.10
23643;BME280;11998;55.788;37.572;2023-05-11T05:13:57;99416.78;;;96.80;1.83
23643;BME280;11998;55.788;37.572;2023-05-11T05:14:58;99409.47;;;96.64;1.83
23643;BME280;11998;55.788;37.572;2023-05-11T05:15:58;99404.81;;;96.82;2.05
23643;BME280;11998;55.788;37.572;2023-05-11T05:16:59;99407.75;;;96.61;2.04
23643;BME280;11998;55.788;37.572;2023-05-11T05:18:00;99406.16;;;96.60;2.07
23643;BME280;11998;55.788;37.572;2023-05-11T05:19:01;99403.22;;;96.21;1.91
23643;BME280;11998;55.788;37.572;2023-05-11T05:20:02;99408.31;;;96.88;1.94
23643;BME280;11998;55.788;37.572;2023-05-11T05:21:03;99406.09;;;97.20;1.80
23643;BME280;11998;55.788;37.572;2023-05-11T05:22:04;99402.69;;;97.56;2.00
23643;BME280;11998;55.788;37.572;2023-05-11T05:23:05;99403.63;;;98.35;1.81
23643;BME280;11998;55.788;37.572;2023-05-11T05:24:05;99413.97;;;99.00;1.70
23643;BME280;11998;55.788;37.572;2023-05-11T05:25:10;99407.50;;;99.53;1.75
23643;BME280;11998;55.788;37.572;2023-05-11T05:26:11;99407.34;;;100.25;1.64
23643;BME280;11998;55.788;37.572;2023-05-11T05:27:11;99392.13;;;98.66;2.03
23643;BME280;11998;55.788;37.572;2023-05-11T05:28:12;99411.16;;;100.00;1.47
23643;BME280;11998;55.788;37.572;2023-05-11T05:29:13;99404.09;;;100.74;1.52
23643;BME280;11998;55.788;37.572;2023-05-11T05:30:13;99384.97;;;97.63;1.98
23643;BME280;11998;55.788;37.572;2023-05-11T05:31:17;99403.66;;;99.52;1.70
23643;BME280;11998;55.788;37.572;2023-05-11T05:32:19;99409.22;;;100.44;1.39
23643;BME280;11998;55.788;37.572;2023-05-11T05:33:19;99403.81;;;100.81;1.79
23643;BME280;11998;55.788;37.572;2023-05-11T05:34:20;99392.31;;;100.66;1.69
23643;BME280;11998;55.788;37.572;2023-05-11T05:35:21;99408.44;;;101.10;1.68
23643;BME280;11998;55.788;37.572;2023-05-11T05:36:22;99400.25;;;101.69;1.45
23643;BME280;11998;55.788;37.572;2023-05-11T05:37:22;99400.84;;;103.04;1.51
23643;BME280;11998;55.788;37.572;2023-05-11T05:38:23;99395.97;;;102.81;1.56